Calistoga, CA

7:03 AM PST on December 10, 2016 (GMT -0800)
Calistoga | | Change Station

Elev 367 ft 38.59 °N, 122.58 °W | Updated 11 seconds ago

Rain
Rain
57.7 °F
Feels Like 57.7 °F
N
2.9
Wind Variable Wind from WSW
Gusts 7.0 mph

Today
High -- | Low -- °F
--% Chance of Precip.
Yesterday
High -- | Low -- °F
Precip. -- in
Pressure 30.01 in
Visibility 2.0 miles
Clouds Mostly Cloudy 800 ft
Overcast 1000 ft
Dew Point 56 °F
Humidity 95%
Rainfall 0.48 in
Snow Depth Not available.
7:17 AM 4:49 PM
Waxing Gibbous, 84% visible
METAR KSTS 101453Z 15004KT 2SM -RA BR BKN008 OVC010 14/14 A3003 RMK AO2 SLP163 P0019 60033 T01440144 50002
Pressure 30.01 in
Visibility 2.0 miles
Clouds Mostly Cloudy 800 ft
Overcast 1000 ft
Dew Point 56 °F
Humidity 95%
Rainfall 0.48 in
Snow Depth Not available.
7:17 AM 4:49 PM
Waxing Gibbous, 84% visible
METAR KSTS 101453Z 15004KT 2SM -RA BR BKN008 OVC010 14/14 A3003 RMK AO2 SLP163 P0019 60033 T01440144 50002

10-Day Weather Forecast

Almanac

Astronomy

Dec. 10, 2016 Rise Set
Actual Time
Civil Twilight
Nautical Twilight
Astronomical Twilight
Moon
Length of Visible Light
Length of Day
Tomorrow will be .
, % of the Moon is Illuminated

Today's Extremes

State Highs State Lows

Community

WunderPhotos

Upload Photos

1,956,549 photos uploaded!

WunderBlog® & News

Nearby

Air Quality

  Air Quality AQ Index Pollutant
Not available.

Snow Depth

Station Depth Elevation

Earthquake Activity

City Distance Mag. Time & Date
Minimum magnitude displayed is 2.5.

Coastal Water Temperatures

Place Temperature

Stations

Nearby Weather Stations

Station Location Temp. Windchill Dew Point Humidity Wind Precip. Elev Updated Type
                   

Watches & Warnings

There are currently no watches in effect.